GCLP

Gran Canaria Airport

Gran Canaria Island, Spain
TAF GCLP 212000Z 2121/2221 36025KT 9999 FEW020 TX27/2214Z TN21/2205Z PROB40 TEMPO 2121/2208 36022G32KT TEMPO 2208/2219 36026G36KT
Issued Valid From Valid To
Jul-21 @ 20:00 UTC
(3 hours ago)
Jul-21 @ 21:00 UTC
(2 hours ago)
Jul-22 @ 21:00 UTC
(in 22 hours)
Jul-21 @ 21:00 to Jul-22 @ 21:00
TAF GCLP 212000Z 2121/2221 36025KT 9999 FEW020 TX27/2214Z TN21/2205Z
Wind Visibility Clouds
360° at 25 knots 10,000+ meters
  • Few at 2,000' AGL
Temporary  (Probability 40%) Jul-21 @ 21:00 to Jul-22 @ 08:00
PROB40 TEMPO 2121/2208 36022G32KT
Wind
360° at 22 knots
 Gusting to 32 knots
Temporary Jul-22 @ 08:00 to Jul-22 @ 19:00
TEMPO 2208/2219 36026G36KT
Wind
360° at 26 knots
 Gusting to 36 knots
TAF GCLP 212000Z 2121/2221 36025KT 9999 FEW020 TX27/2214Z TN21/2205Z PROB40 TEMPO 2121/2208 36022G32KT TEMPO 2208/2219 36026G36KT
Issued Jul-21 @ 20:00 UTC
(3 hours ago)
Valid From Jul-21 @ 21:00 UTC
(2 hours ago)
Valid To Jul-22 @ 21:00 UTC
(in 22 hours)
Jul-21 @ 21:00 - Jul-22 @ 21:00
Wind Visibility
360° at 25 knots 10,000+ meters
Clouds
  • Few at 2,000' AGL
Probability 40% Temporary Jul-21 @ 21:00 - Jul-22 @ 08:00
Wind
360° at 22 knots
 Gusting to 32 knots
Temporary Jul-22 @ 08:00 - Jul-22 @ 19:00
Wind
360° at 26 knots
 Gusting to 36 knots